Time;durP1;ratioP1;P1;durP2;ratioP2;P2;SDS_P1;SDS_P2;PMS_P1;PMS_P2;Temp;Humidity;BMP_temperature;BMP_pressure;BME280_temperature;BME280_humidity;BME280_pressure;Samples;Min_cycle;Max_cycle;Signal;HPM_P1;HPM_P2
2023/09/07 00:03:47;;;;;;;7.07;4.43;;;15.60;99.90;;;;;;7347698;32;20207;-56
2023/09/07 00:07:49;;;;;;;7.85;4.00;;;15.50;99.90;;;;;;7351433;32;20210;-55
2023/09/07 00:11:51;;;;;;;8.82;4.00;;;15.50;99.90;;;;;;7355836;32;20559;-57
2023/09/07 00:15:52;;;;;;;6.10;3.70;;;15.60;99.90;;;;;;7348559;32;20545;-56
2023/09/07 00:19:56;;;;;;;8.70;3.92;;;15.60;99.90;;;;;;7346700;32;20121;-56
2023/09/07 00:23:58;;;;;;;5.68;3.78;;;15.50;99.90;;;;;;7349359;32;20151;-56
2023/09/07 00:28:00;;;;;;;7.95;3.42;;;15.40;99.90;;;;;;7353400;32;20104;-55
2023/09/07 00:32:02;;;;;;;7.93;3.87;;;15.30;99.90;;;;;;7353381;32;20100;-55
2023/09/07 00:36:04;;;;;;;5.95;3.72;;;15.20;99.90;;;;;;7346096;32;20471;-56
2023/09/07 00:44:09;;;;;;;8.63;4.00;;;15.10;99.90;;;;;;7322722;32;20190;-77
2023/09/07 00:48:16;;;;;;;5.80;3.22;;;15.00;99.90;;;;;;7323633;32;20131;-78
2023/09/07 00:52:19;;;;;;;9.10;3.22;;;15.00;99.90;;;;;;7339020;26;20848;-55
2023/09/07 00:56:21;;;;;;;4.60;3.17;;;14.90;99.90;;;;;;7320370;32;20131;-55
2023/09/07 01:00:23;;;;;;;8.35;3.30;;;14.80;99.90;;;;;;7326626;32;20172;-55
2023/09/07 01:04:24;;;;;;;6.53;3.47;;;14.90;99.90;;;;;;7299427;32;20581;-56
2023/09/07 01:08:32;;;;;;;5.87;3.47;;;14.80;99.90;;;;;;7312604;32;20211;-55
2023/09/07 01:12:35;;;;;;;4.50;3.00;;;14.70;99.90;;;;;;7309060;32;20517;-57
2023/09/07 01:16:40;;;;;;;8.95;3.67;;;14.70;99.90;;;;;;7302740;32;20618;-54
2023/09/07 01:20:44;;;;;;;6.43;3.65;;;14.60;99.90;;;;;;7314729;32;20107;-55
2023/09/07 01:24:46;;;;;;;6.18;3.62;;;14.60;99.90;;;;;;7311840;32;20620;-56
2023/09/07 01:28:48;;;;;;;4.95;3.28;;;14.60;99.90;;;;;;7300678;32;20104;-56
2023/09/07 01:32:50;;;;;;;4.07;3.10;;;14.50;99.90;;;;;;7309632;32;20115;-55
2023/09/07 01:36:52;;;;;;;5.82;3.95;;;14.50;99.90;;;;;;7302323;32;20447;-55
2023/09/07 01:40:53;;;;;;;6.47;3.47;;;14.50;99.90;;;;;;7321338;32;20107;-55
2023/09/07 01:44:55;;;;;;;5.40;3.35;;;14.40;99.90;;;;;;7296784;32;20320;-55
2023/09/07 01:48:57;;;;;;;7.78;3.25;;;14.40;99.90;;;;;;7312959;32;20233;-55
2023/09/07 01:52:59;;;;;;;5.50;3.53;;;14.30;99.90;;;;;;7300660;32;20474;-55
2023/09/07 01:57:00;;;;;;;6.10;3.55;;;14.30;99.90;;;;;;7300979;32;20112;-55
2023/09/07 02:01:02;;;;;;;6.90;3.37;;;14.30;99.90;;;;;;7306829;32;20390;-55
2023/09/07 02:05:04;;;;;;;10.10;3.67;;;14.20;99.90;;;;;;7303362;32;20210;-55
2023/09/07 02:09:07;;;;;;;8.98;3.40;;;14.30;99.90;;;;;;7298085;32;20186;-55
2023/09/07 02:13:12;;;;;;;5.57;3.50;;;14.30;99.90;;;;;;7302935;32;20147;-55
2023/09/07 02:17:17;;;;;;;5.62;3.37;;;14.20;99.90;;;;;;7298933;32;20107;-54
2023/09/07 02:21:19;;;;;;;8.13;3.25;;;14.20;99.90;;;;;;7304216;32;20234;-55
2023/09/07 02:25:21;;;;;;;8.77;3.15;;;14.10;99.90;;;;;;7288905;32;20326;-55
2023/09/07 02:29:23;;;;;;;4.40;3.05;;;14.10;99.90;;;;;;7306434;32;20129;-54
2023/09/07 02:33:24;;;;;;;7.07;3.00;;;14.10;99.90;;;;;;7314051;32;20164;-55
2023/09/07 02:37:26;;;;;;;7.97;3.47;;;14.00;99.90;;;;;;7301607;32;20168;-55
2023/09/07 02:41:28;;;;;;;5.12;3.05;;;14.00;99.90;;;;;;7305751;32;20503;-55
2023/09/07 02:45:30;;;;;;;5.25;3.10;;;14.00;99.90;;;;;;7295819;32;20116;-55
2023/09/07 02:49:31;;;;;;;6.32;3.20;;;14.00;99.90;;;;;;7313752;32;20534;-56
2023/09/07 02:53:33;;;;;;;6.40;3.70;;;13.90;99.90;;;;;;7302358;32;20119;-55
2023/09/07 02:57:35;;;;;;;11.80;3.97;;;13.90;99.90;;;;;;7307159;32;20556;-55
2023/09/07 03:01:39;;;;;;;5.18;3.37;;;13.80;99.90;;;;;;7319950;32;20259;-55
2023/09/07 03:05:41;;;;;;;12.30;3.78;;;13.80;99.90;;;;;;7309639;32;20450;-56
2023/09/07 03:09:44;;;;;;;5.15;3.42;;;13.80;99.90;;;;;;7317407;32;20111;-56
2023/09/07 03:13:46;;;;;;;5.45;3.05;;;13.70;99.90;;;;;;7311073;32;20128;-55
2023/09/07 03:17:48;;;;;;;3.28;2.90;;;13.70;99.90;;;;;;7303648;32;20509;-56
2023/09/07 03:21:49;;;;;;;5.07;3.25;;;13.70;99.90;;;;;;7304110;32;20183;-56
2023/09/07 03:25:51;;;;;;;3.92;3.37;;;13.70;99.90;;;;;;7312609;32;20228;-55
2023/09/07 03:29:53;;;;;;;7.80;3.40;;;13.60;99.90;;;;;;7307432;32;20222;-54
2023/09/07 03:33:55;;;;;;;6.85;3.08;;;13.70;99.90;;;;;;7307451;32;20126;-56
2023/09/07 03:37:57;;;;;;;8.43;3.53;;;13.70;99.90;;;;;;7306164;32;20608;-55
2023/09/07 03:41:59;;;;;;;4.45;3.25;;;13.60;99.90;;;;;;7300348;32;20107;-55
2023/09/07 03:46:00;;;;;;;8.32;3.55;;;13.70;99.90;;;;;;7308553;32;20115;-54
2023/09/07 03:50:03;;;;;;;6.32;3.60;;;13.70;99.90;;;;;;7316675;32;20135;-57
2023/09/07 03:54:04;;;;;;;6.68;3.40;;;13.70;99.90;;;;;;7310939;32;20116;-55
2023/09/07 03:58:06;;;;;;;4.65;3.08;;;13.70;99.90;;;;;;7304108;32;20134;-57
2023/09/07 04:02:08;;;;;;;5.82;3.50;;;13.60;99.90;;;;;;7301616;32;20253;-55
2023/09/07 04:06:10;;;;;;;7.65;3.70;;;13.70;99.90;;;;;;7302124;32;20104;-55
2023/09/07 04:10:11;;;;;;;5.22;3.65;;;13.60;99.90;;;;;;7304915;32;20095;-55
2023/09/07 04:14:13;;;;;;;10.45;3.72;;;13.60;99.90;;;;;;7307251;32;20138;-56
2023/09/07 04:18:16;;;;;;;6.45;3.50;;;13.70;99.90;;;;;;7309213;32;20155;-55
2023/09/07 04:22:18;;;;;;;6.30;3.40;;;13.70;99.90;;;;;;7308150;32;20218;-55
2023/09/07 04:26:20;;;;;;;5.62;3.60;;;13.70;99.90;;;;;;7305535;32;20116;-55
2023/09/07 04:30:21;;;;;;;4.60;3.40;;;13.60;99.90;;;;;;7306773;32;20249;-55
2023/09/07 04:34:24;;;;;;;11.40;4.35;;;13.60;99.90;;;;;;7315165;32;20615;-55
2023/09/07 04:38:26;;;;;;;7.53;3.78;;;13.60;99.90;;;;;;7310649;32;20141;-55
2023/09/07 04:42:27;;;;;;;9.38;3.37;;;13.60;99.90;;;;;;7307564;32;20620;-55
2023/09/07 04:46:29;;;;;;;6.20;3.37;;;13.60;99.90;;;;;;7305215;32;20120;-56
2023/09/07 04:50:31;;;;;;;8.77;4.20;;;13.60;99.90;;;;;;7301815;32;20146;-55
2023/09/07 04:54:32;;;;;;;5.10;3.45;;;13.60;99.90;;;;;;7312584;32;20139;-55
2023/09/07 04:58:35;;;;;;;8.57;3.90;;;13.60;99.90;;;;;;7306075;32;20243;-56
2023/09/07 05:02:41;;;;;;;3.83;3.12;;;13.60;99.90;;;;;;7311158;32;20131;-57
2023/09/07 05:06:43;;;;;;;5.40;3.28;;;13.60;99.90;;;;;;7294253;32;20289;-55
2023/09/07 05:10:45;;;;;;;7.68;3.95;;;13.60;99.90;;;;;;7297923;32;20235;-63
2023/09/07 05:14:47;;;;;;;6.28;3.60;;;13.60;99.90;;;;;;7297063;32;20270;-56
2023/09/07 05:18:49;;;;;;;5.87;3.80;;;13.60;99.90;;;;;;7297872;32;20234;-55
2023/09/07 05:22:50;;;;;;;6.40;3.55;;;13.60;99.90;;;;;;7282852;32;20134;-56
2023/09/07 05:26:52;;;;;;;9.18;4.28;;;13.60;99.90;;;;;;7301493;32;20164;-56
2023/09/07 05:30:54;;;;;;;5.78;3.50;;;13.60;99.90;;;;;;7302949;32;20525;-55
2023/09/07 05:34:56;;;;;;;13.88;10.20;;;13.70;99.90;;;;;;7284300;32;20119;-56
2023/09/07 05:38:59;;;;;;;22.67;17.40;;;13.70;99.90;;;;;;7279325;32;20564;-56
2023/09/07 05:43:01;;;;;;;6.45;5.15;;;13.70;99.90;;;;;;7266678;32;20142;-56
2023/09/07 05:47:03;;;;;;;5.82;4.12;;;13.80;99.90;;;;;;7298008;32;20135;-58
2023/09/07 05:51:05;;;;;;;7.35;4.47;;;13.90;99.90;;;;;;7300439;32;20502;-58
2023/09/07 05:55:07;;;;;;;6.37;4.12;;;13.90;99.90;;;;;;7300762;32;20559;-59
2023/09/07 05:59:09;;;;;;;7.18;4.35;;;14.10;99.90;;;;;;7303617;32;20257;-55
2023/09/07 06:03:11;;;;;;;6.00;4.25;;;14.20;99.90;;;;;;7295042;32;20239;-56
2023/09/07 06:07:13;;;;;;;5.57;4.25;;;14.20;99.90;;;;;;7296096;32;20134;-56
2023/09/07 06:11:15;;;;;;;5.50;3.92;;;14.30;99.90;;;;;;7296247;32;21515;-57
2023/09/07 06:15:16;;;;;;;5.70;3.83;;;14.40;99.90;;;;;;7291294;32;20280;-57
2023/09/07 06:19:19;;;;;;;6.05;4.22;;;14.40;99.90;;;;;;7296355;32;20126;-57
2023/09/07 06:23:21;;;;;;;38.38;28.58;;;14.50;99.90;;;;;;7298585;32;20827;-57
2023/09/07 06:27:23;;;;;;;10.30;7.95;;;14.60;99.90;;;;;;7302870;32;20132;-57
2023/09/07 06:31:24;;;;;;;8.57;4.68;;;14.70;99.90;;;;;;7282178;32;21291;-57
2023/09/07 06:35:26;;;;;;;6.60;4.28;;;14.90;99.90;;;;;;7291132;32;20120;-57
2023/09/07 06:39:28;;;;;;;6.37;4.15;;;15.00;99.90;;;;;;7298465;32;20276;-57
2023/09/07 06:43:31;;;;;;;10.20;4.68;;;15.10;99.90;;;;;;7282124;32;20134;-59
2023/09/07 06:47:33;;;;;;;5.37;4.75;;;15.20;99.90;;;;;;7298526;32;20142;-57
2023/09/07 06:51:35;;;;;;;7.57;4.85;;;15.30;99.90;;;;;;7297506;32;20178;-57
2023/09/07 06:55:37;;;;;;;8.20;5.40;;;15.50;99.90;;;;;;7299213;32;20165;-57
2023/09/07 06:59:38;;;;;;;9.18;5.40;;;15.60;99.90;;;;;;7300152;32;20210;-57
2023/09/07 07:03:40;;;;;;;10.50;6.55;;;15.70;99.90;;;;;;7301180;32;20192;-57
2023/09/07 07:07:42;;;;;;;10.73;5.75;;;15.90;99.90;;;;;;7300843;32;20514;-56
2023/09/07 07:11:44;;;;;;;11.68;6.30;;;16.10;99.90;;;;;;7281908;32;20127;-57
2023/09/07 07:15:46;;;;;;;8.95;5.87;;;16.30;99.90;;;;;;7305251;32;20123;-57
2023/09/07 07:19:47;;;;;;;15.98;6.40;;;16.40;99.90;;;;;;7296926;32;20218;-57
2023/09/07 07:23:49;;;;;;;9.57;5.47;;;16.60;99.90;;;;;;7298687;32;20548;-56
2023/09/07 07:27:51;;;;;;;11.30;5.93;;;16.80;99.90;;;;;;7294966;32;20339;-57
2023/09/07 07:31:53;;;;;;;8.13;5.47;;;17.10;99.90;;;;;;7297202;32;20200;-57
2023/09/07 07:35:55;;;;;;;5.65;4.87;;;17.30;99.90;;;;;;7295148;32;20116;-56
2023/09/07 07:39:57;;;;;;;6.72;4.30;;;17.70;99.90;;;;;;7298207;32;20104;-57
2023/09/07 07:43:58;;;;;;;8.18;4.57;;;18.10;99.90;;;;;;7299911;32;20573;-56
2023/09/07 07:48:01;;;;;;;11.20;5.12;;;18.30;99.90;;;;;;7298228;32;20536;-57
2023/09/07 07:52:03;;;;;;;9.30;4.95;;;18.50;99.90;;;;;;7299773;32;20203;-54
2023/09/07 07:56:05;;;;;;;9.10;3.72;;;18.90;99.90;;;;;;7302685;32;20100;-54
2023/09/07 08:00:07;;;;;;;7.12;3.90;;;19.10;99.90;;;;;;7303020;32;20324;-54
2023/09/07 08:04:09;;;;;;;6.05;3.58;;;19.40;99.90;;;;;;7300207;32;20187;-54
2023/09/07 08:08:11;;;;;;;5.90;3.95;;;19.70;99.90;;;;;;7304138;32;20152;-56
2023/09/07 08:12:13;;;;;;;6.20;3.17;;;20.00;99.90;;;;;;7294204;32;20165;-55
2023/09/07 08:16:15;;;;;;;4.55;3.40;;;20.40;99.90;;;;;;7298603;32;20548;-56
2023/09/07 08:20:17;;;;;;;4.60;3.28;;;20.80;99.90;;;;;;7302560;32;20191;-56
2023/09/07 08:24:19;;;;;;;2.87;2.53;;;21.10;99.90;;;;;;7302763;32;20186;-56
2023/09/07 08:28:22;;;;;;;6.12;3.10;;;21.60;99.90;;;;;;7296129;32;20180;-56
2023/09/07 08:32:23;;;;;;;4.87;3.28;;;22.00;99.90;;;;;;7298138;32;20241;-56
2023/09/07 08:36:28;;;;;;;10.88;3.05;;;22.30;99.90;;;;;;7302774;32;20215;-58
2023/09/07 08:40:30;;;;;;;5.87;3.37;;;22.80;99.90;;;;;;7296961;32;20100;-57
2023/09/07 08:44:36;;;;;;;7.50;3.22;;;23.30;99.90;;;;;;7298235;32;20100;-57
2023/09/07 08:48:39;;;;;;;4.50;2.90;;;23.60;99.90;;;;;;7298446;32;20100;-58
2023/09/07 08:52:42;;;;;;;3.87;3.10;;;23.90;99.90;;;;;;7299805;32;20387;-57
2023/09/07 08:56:45;;;;;;;4.65;3.37;;;24.20;99.90;;;;;;7301469;32;20180;-57
2023/09/07 09:00:47;;;;;;;5.18;3.22;;;24.30;99.90;;;;;;7301292;32;20469;-57
2023/09/07 09:04:50;;;;;;;6.72;3.03;;;24.30;99.90;;;;;;7298831;32;20263;-58
2023/09/07 09:08:56;;;;;;;6.20;2.92;;;24.20;99.90;;;;;;7300676;32;20104;-56
2023/09/07 09:12:59;;;;;;;5.17;3.30;;;24.50;99.90;;;;;;7302323;32;20346;-56
2023/09/07 09:17:01;;;;;;;5.12;3.12;;;24.80;99.90;;;;;;7294793;32;20536;-57
2023/09/07 09:21:05;;;;;;;3.17;2.72;;;25.40;99.90;;;;;;7301262;32;20169;-57
2023/09/07 09:25:08;;;;;;;7.12;3.17;;;26.40;99.90;;;;;;7299564;32;20227;-59
2023/09/07 09:29:11;;;;;;;4.93;3.00;;;26.90;99.90;;;;;;7294282;32;20664;-56
2023/09/07 09:33:14;;;;;;;3.97;2.90;;;26.90;99.90;;;;;;7298244;32;20186;-58
2023/09/07 09:37:19;;;;;;;3.92;2.80;;;27.20;99.90;;;;;;7299243;32;20203;-60
2023/09/07 09:41:21;;;;;;;6.80;2.28;;;28.50;99.90;;;;;;7297556;32;20134;-57
2023/09/07 09:45:26;;;;;;;3.12;2.70;;;30.20;99.90;;;;;;7299944;32;20254;-58
2023/09/07 09:49:29;;;;;;;5.50;2.63;;;31.60;99.90;;;;;;7299143;32;20134;-58
2023/09/07 09:53:32;;;;;;;2.90;2.40;;;32.60;96.70;;;;;;7298867;32;20146;-58
2023/09/07 09:57:36;;;;;;;3.65;2.33;;;33.40;96.30;;;;;;7298854;32;20169;-55
2023/09/07 10:01:44;;;;;;;4.60;2.58;;;34.10;93.50;;;;;;7297911;32;20951;-56
2023/09/07 10:05:48;;;;;;;4.55;1.95;;;34.80;91.90;;;;;;7295119;32;20349;-56
2023/09/07 10:09:50;;;;;;;2.70;2.05;;;35.90;88.50;;;;;;7302254;32;20132;-56
2023/09/07 10:13:57;;;;;;;4.75;2.25;;;36.60;83.90;;;;;;7305805;32;20303;-55
2023/09/07 10:18:13;;;;;;;5.53;2.17;;;36.50;80.30;;;;;;7297657;32;20663;-56
2023/09/07 10:22:23;;;;;;;5.15;2.20;;;36.30;82.90;;;;;;7299207;32;20104;-55
2023/09/07 10:26:25;;;;;;;3.58;2.25;;;36.10;81.50;;;;;;7299530;32;20104;-58
2023/09/07 10:30:26;;;;;;;3.30;2.20;;;35.90;80.30;;;;;;7299558;32;20264;-58
2023/09/07 10:34:39;;;;;;;3.72;2.08;;;35.90;80.00;;;;;;7296642;32;20131;-57
2023/09/07 10:38:41;;;;;;;6.03;2.20;;;35.50;80.30;;;;;;7297819;32;20122;-56
2023/09/07 10:42:42;;;;;;;3.30;2.30;;;35.20;80.90;;;;;;7287418;32;20126;-56
2023/09/07 10:46:44;;;;;;;4.00;2.40;;;35.10;84.70;;;;;;7310273;32;20107;-55
2023/09/07 10:50:47;;;;;;;3.33;2.10;;;34.80;80.90;;;;;;7284257;32;20105;-56
2023/09/07 10:54:57;;;;;;;2.85;2.40;;;34.40;79.20;;;;;;7299287;32;20103;-57
2023/09/07 10:58:59;;;;;;;2.53;2.33;;;34.20;80.60;;;;;;7297635;32;20223;-56
2023/09/07 11:03:08;;;;;;;2.60;2.17;;;34.10;79.30;;;;;;7294735;32;20130;-56
2023/09/07 11:07:11;;;;;;;3.97;2.28;;;34.50;81.00;;;;;;7291550;32;20345;-57
2023/09/07 11:11:13;;;;;;;3.22;2.60;;;34.70;77.80;;;;;;7300232;32;20178;-56
2023/09/07 11:15:15;;;;;;;3.00;2.03;;;34.50;77.20;;;;;;7302531;32;20108;-56
2023/09/07 11:19:18;;;;;;;2.20;1.95;;;34.50;75.00;;;;;;7298451;32;20249;-56
2023/09/07 11:23:22;;;;;;;8.70;2.28;;;33.70;79.70;;;;;;7303642;32;20214;-59
2023/09/07 11:27:26;;;;;;;4.35;2.15;;;33.10;77.30;;;;;;7301280;32;20123;-55
2023/09/07 11:31:28;;;;;;;3.30;2.30;;;32.60;80.00;;;;;;7297096;32;20139;-57
2023/09/07 11:35:30;;;;;;;4.07;2.78;;;32.30;86.40;;;;;;7303013;32;20213;-56
2023/09/07 11:39:31;;;;;;;2.65;2.20;;;31.60;81.40;;;;;;7303721;32;20123;-56
2023/09/07 11:43:33;;;;;;;5.00;2.58;;;31.40;84.20;;;;;;7303855;32;20100;-56
2023/09/07 11:47:36;;;;;;;6.75;2.67;;;31.20;87.30;;;;;;7305040;32;20253;-56
2023/09/07 11:51:38;;;;;;;3.10;2.28;;;30.90;85.50;;;;;;7304509;32;20107;-56
2023/09/07 11:55:41;;;;;;;2.87;2.05;;;31.10;90.50;;;;;;7306318;32;20131;-56
2023/09/07 11:59:42;;;;;;;6.37;2.58;;;31.20;87.20;;;;;;7302777;32;20092;-56
2023/09/07 12:03:59;;;;;;;4.62;2.35;;;30.80;83.00;;;;;;7303309;32;20118;-56
2023/09/07 12:08:01;;;;;;;4.50;2.58;;;30.50;87.10;;;;;;7308408;32;20158;-56
2023/09/07 12:12:03;;;;;;;4.72;2.40;;;30.50;86.70;;;;;;7301735;32;20785;-56
2023/09/07 12:16:05;;;;;;;8.90;2.78;;;30.20;87.60;;;;;;7303887;32;20172;-56
2023/09/07 12:20:10;;;;;;;5.05;2.22;;;30.40;91.00;;;;;;7307153;32;20654;-55
2023/09/07 12:24:12;;;;;;;5.00;2.47;;;30.50;88.00;;;;;;7302625;32;20346;-55
2023/09/07 12:28:14;;;;;;;3.12;2.40;;;30.30;91.00;;;;;;7305175;32;20088;-55
2023/09/07 12:32:16;;;;;;;6.10;2.70;;;30.20;91.20;;;;;;7302082;32;20297;-57
2023/09/07 12:36:18;;;;;;;4.05;3.17;;;30.10;91.70;;;;;;7301789;32;20181;-58
2023/09/07 12:40:20;;;;;;;3.10;2.45;;;30.10;89.10;;;;;;7299592;32;20593;-56
2023/09/07 12:44:21;;;;;;;5.50;3.10;;;29.90;87.90;;;;;;7299738;32;20153;-57
2023/09/07 12:48:23;;;;;;;4.85;2.20;;;30.00;89.20;;;;;;7304587;32;20520;-56
2023/09/07 12:52:25;;;;;;;3.12;2.83;;;30.20;90.50;;;;;;7299510;32;20135;-58
2023/09/07 12:56:27;;;;;;;3.50;2.90;;;30.40;91.50;;;;;;7302809;32;20097;-56
2023/09/07 13:00:29;;;;;;;3.40;2.60;;;30.40;91.30;;;;;;7300285;32;20115;-57
2023/09/07 13:04:30;;;;;;;4.95;2.80;;;30.40;90.60;;;;;;7304792;32;20210;-57
2023/09/07 13:08:33;;;;;;;3.00;2.30;;;30.50;82.60;;;;;;7299329;32;20218;-57
2023/09/07 13:12:37;;;;;;;5.95;3.08;;;30.50;81.00;;;;;;7301957;32;20998;-59
2023/09/07 13:16:39;;;;;;;4.03;2.60;;;30.50;83.20;;;;;;7317182;32;20123;-57
2023/09/07 13:20:42;;;;;;;3.20;2.62;;;30.40;82.90;;;;;;7283822;32;20183;-57
2023/09/07 13:24:43;;;;;;;5.03;2.60;;;30.50;85.40;;;;;;7299495;32;20533;-57
2023/09/07 13:28:45;;;;;;;4.50;2.70;;;30.30;87.60;;;;;;7303748;32;20275;-57
2023/09/07 13:32:47;;;;;;;4.35;2.67;;;30.50;84.80;;;;;;7299495;32;20119;-57
2023/09/07 13:36:49;;;;;;;8.18;3.10;;;30.50;84.30;;;;;;7306297;32;20242;-57
2023/09/07 13:40:50;;;;;;;4.90;2.97;;;30.40;82.60;;;;;;7302561;32;20135;-57
2023/09/07 13:44:52;;;;;;;6.57;2.50;;;30.50;83.90;;;;;;7302980;32;20226;-57
2023/09/07 13:48:54;;;;;;;4.32;2.90;;;30.50;82.20;;;;;;7299762;32;20290;-56
2023/09/07 13:52:56;;;;;;;4.40;2.80;;;30.70;85.50;;;;;;7299102;32;20104;-58
2023/09/07 13:56:57;;;;;;;4.57;2.87;;;30.80;84.20;;;;;;7295241;32;20126;-57
2023/09/07 14:00:59;;;;;;;6.55;2.53;;;30.90;87.10;;;;;;7302142;32;20529;-58
2023/09/07 14:05:01;;;;;;;4.62;3.12;;;31.00;84.90;;;;;;7290909;32;20241;-58
2023/09/07 14:09:03;;;;;;;5.30;3.05;;;30.90;80.80;;;;;;7297012;32;20105;-57
2023/09/07 14:13:05;;;;;;;3.37;2.78;;;31.20;84.40;;;;;;7305186;32;20126;-61
2023/09/07 14:17:06;;;;;;;5.35;2.83;;;31.10;81.80;;;;;;7298206;32;20257;-58
2023/09/07 14:21:08;;;;;;;4.30;2.60;;;31.30;80.00;;;;;;7303897;32;20185;-58
2023/09/07 14:25:10;;;;;;;4.55;2.75;;;31.20;83.60;;;;;;7315215;32;20100;-57
2023/09/07 14:29:12;;;;;;;5.07;3.05;;;31.20;78.30;;;;;;7296403;32;20320;-57
2023/09/07 14:33:13;;;;;;;5.37;2.78;;;31.20;83.80;;;;;;7300813;32;20124;-58
2023/09/07 14:37:15;;;;;;;8.35;2.87;;;31.30;84.30;;;;;;7299065;32;20192;-58
2023/09/07 14:41:21;;;;;;;7.40;2.67;;;31.00;85.80;;;;;;7302243;32;20100;-58
2023/09/07 14:45:26;;;;;;;4.35;3.03;;;31.00;84.40;;;;;;7297805;32;20111;-57
2023/09/07 14:49:28;;;;;;;5.05;3.30;;;30.60;82.60;;;;;;7302874;32;20130;-58
2023/09/07 14:53:29;;;;;;;5.75;2.78;;;30.50;85.60;;;;;;7315169;32;20225;-58
2023/09/07 14:57:31;;;;;;;3.20;2.50;;;30.40;84.30;;;;;;7307756;32;20283;-56
2023/09/07 15:01:34;;;;;;;4.20;2.70;;;30.30;88.80;;;;;;7304104;32;20589;-57
2023/09/07 15:05:36;;;;;;;3.92;2.80;;;30.00;80.40;;;;;;7302931;32;20099;-57
2023/09/07 15:09:38;;;;;;;4.97;2.78;;;30.00;80.90;;;;;;7303666;32;20187;-57
2023/09/07 15:13:40;;;;;;;4.03;2.72;;;29.90;88.00;;;;;;7307204;32;20191;-57
2023/09/07 15:17:51;;;;;;;5.50;2.62;;;29.70;87.60;;;;;;7313135;32;20214;-57
2023/09/07 15:21:53;;;;;;;5.62;2.60;;;29.60;82.30;;;;;;7314060;32;20100;-57
2023/09/07 15:25:54;;;;;;;4.12;2.80;;;29.60;79.40;;;;;;7308270;32;20100;-57
2023/09/07 15:29:56;;;;;;;6.60;2.45;;;29.50;80.60;;;;;;7301209;32;20103;-57
2023/09/07 15:33:58;;;;;;;4.93;2.65;;;29.40;82.30;;;;;;7304143;32;20166;-58
2023/09/07 15:37:59;;;;;;;4.82;2.87;;;29.10;76.00;;;;;;7308690;32;20168;-56
2023/09/07 15:42:01;;;;;;;6.12;2.97;;;29.00;77.00;;;;;;7301499;32;20179;-57
2023/09/07 15:46:03;;;;;;;5.25;3.08;;;29.00;78.60;;;;;;7297564;32;20228;-57
2023/09/07 15:50:07;;;;;;;4.25;2.90;;;29.00;86.20;;;;;;7302933;32;20116;-57
2023/09/07 15:54:09;;;;;;;4.15;2.70;;;29.00;84.80;;;;;;7302254;32;20292;-58
2023/09/07 15:58:11;;;;;;;4.72;3.00;;;28.80;85.20;;;;;;7303219;32;20502;-57
2023/09/07 16:02:13;;;;;;;4.30;2.90;;;28.70;83.30;;;;;;7306324;32;20092;-57
2023/09/07 16:06:15;;;;;;;5.85;3.17;;;28.60;87.00;;;;;;7306566;32;20577;-58
2023/09/07 16:10:16;;;;;;;4.62;2.80;;;28.50;86.00;;;;;;7306212;32;20155;-58
2023/09/07 16:14:18;;;;;;;4.40;3.00;;;28.40;83.60;;;;;;7297922;32;20192;-58
2023/09/07 16:18:20;;;;;;;4.40;2.95;;;28.40;89.90;;;;;;7305960;32;20168;-57
2023/09/07 16:22:22;;;;;;;5.43;2.95;;;28.10;86.30;;;;;;7302390;32;20199;-58
2023/09/07 16:26:24;;;;;;;4.25;3.03;;;28.10;89.00;;;;;;7303293;32;20201;-58
2023/09/07 16:30:25;;;;;;;4.95;2.92;;;27.80;90.10;;;;;;7301615;32;21078;-56
2023/09/07 16:34:27;;;;;;;4.65;3.10;;;27.70;90.30;;;;;;7280113;32;20104;-58
2023/09/07 16:38:29;;;;;;;4.45;3.53;;;27.50;91.50;;;;;;7301326;32;20126;-57
2023/09/07 16:42:32;;;;;;;7.32;4.85;;;27.30;90.50;;;;;;7300566;32;20202;-57
2023/09/07 16:46:34;;;;;;;8.63;3.83;;;27.40;93.70;;;;;;7300323;32;20698;-57
2023/09/07 16:50:35;;;;;;;5.35;3.53;;;27.20;92.40;;;;;;7300906;32;20131;-58
2023/09/07 16:54:37;;;;;;;5.68;3.60;;;27.10;94.50;;;;;;7299150;32;20451;-57
2023/09/07 16:58:42;;;;;;;7.30;3.42;;;26.80;95.10;;;;;;7301347;32;20153;-58
2023/09/07 17:03:06;;;;;;;5.95;2.92;;;26.80;94.40;;;;;;7305166;32;20312;-57
2023/09/07 17:07:08;;;;;;;5.55;3.03;;;26.60;95.20;;;;;;7309404;32;20104;-59
2023/09/07 17:11:10;;;;;;;5.72;3.87;;;26.40;95.60;;;;;;7298921;32;20108;-59
2023/09/07 17:15:12;;;;;;;4.25;3.25;;;26.40;94.90;;;;;;7289338;32;20256;-57
2023/09/07 17:19:13;;;;;;;3.92;2.90;;;26.10;94.10;;;;;;7297019;32;20119;-57
2023/09/07 17:23:15;;;;;;;5.68;3.25;;;25.90;95.40;;;;;;7284263;32;20976;-58
2023/09/07 17:27:17;;;;;;;5.05;2.83;;;25.70;95.90;;;;;;7300882;32;20092;-57
2023/09/07 17:31:19;;;;;;;6.30;3.20;;;25.50;99.50;;;;;;7297764;32;20590;-56
2023/09/07 17:35:21;;;;;;;5.87;3.05;;;25.10;99.90;;;;;;7303797;32;20151;-58
2023/09/07 17:39:23;;;;;;;7.75;3.37;;;24.90;99.90;;;;;;7296273;32;20591;-57
2023/09/07 17:43:25;;;;;;;7.28;3.40;;;24.60;99.90;;;;;;7293647;32;20190;-57
2023/09/07 17:47:26;;;;;;;5.57;3.80;;;24.20;99.90;;;;;;7295929;32;20119;-57
2023/09/07 17:51:28;;;;;;;4.95;3.83;;;23.80;99.90;;;;;;7287756;32;20565;-55
2023/09/07 17:55:30;;;;;;;7.30;3.83;;;23.40;99.90;;;;;;7296597;32;20146;-54
2023/09/07 17:59:32;;;;;;;6.97;3.70;;;23.10;99.90;;;;;;7300937;32;20223;-55
2023/09/07 18:03:33;;;;;;;8.07;4.10;;;22.70;99.90;;;;;;7299815;32;20114;-57
2023/09/07 18:07:35;;;;;;;6.65;3.87;;;22.40;99.90;;;;;;7302687;32;20127;-57
2023/09/07 18:11:43;;;;;;;8.88;3.87;;;22.00;99.90;;;;;;7301218;32;20100;-57
2023/09/07 18:15:46;;;;;;;8.50;4.37;;;21.80;99.90;;;;;;7293604;32;20197;-57
2023/09/07 18:19:49;;;;;;;7.12;4.90;;;21.60;99.90;;;;;;7291958;32;20125;-57
2023/09/07 18:23:51;;;;;;;11.85;7.62;;;21.40;99.90;;;;;;7299330;32;20123;-54
2023/09/07 18:27:53;;;;;;;10.57;4.45;;;21.10;99.90;;;;;;7300519;32;20376;-56
2023/09/07 18:31:55;;;;;;;7.55;4.43;;;20.90;99.90;;;;;;7299646;32;20104;-57
2023/09/07 18:36:01;;;;;;;8.38;4.03;;;20.80;99.90;;;;;;7296144;32;20395;-56
2023/09/07 18:40:03;;;;;;;4.40;3.80;;;20.50;99.90;;;;;;7301001;32;20419;-56
2023/09/07 18:44:06;;;;;;;11.05;4.50;;;20.30;99.90;;;;;;7297157;32;20234;-56
2023/09/07 18:48:08;;;;;;;9.77;4.53;;;20.10;99.90;;;;;;7297486;32;20126;-56
2023/09/07 18:52:10;;;;;;;6.28;3.58;;;19.90;99.90;;;;;;7296898;32;20112;-56
2023/09/07 18:56:12;;;;;;;12.65;4.78;;;19.80;99.90;;;;;;7290695;32;20229;-56
2023/09/07 19:00:15;;;;;;;8.63;4.20;;;19.60;99.90;;;;;;7290996;32;20178;-55
2023/09/07 19:04:17;;;;;;;9.52;4.78;;;19.40;99.90;;;;;;7296242;32;20138;-56
2023/09/07 19:08:19;;;;;;;10.75;5.25;;;19.30;99.90;;;;;;7298660;32;20108;-55
2023/09/07 19:12:21;;;;;;;9.60;5.20;;;19.10;99.90;;;;;;7300544;32;20158;-57
2023/09/07 19:16:23;;;;;;;8.45;4.43;;;19.00;99.90;;;;;;7301596;32;20520;-56
2023/09/07 19:20:27;;;;;;;8.40;4.65;;;18.90;99.90;;;;;;7298309;32;20100;-56
2023/09/07 19:24:29;;;;;;;7.25;4.30;;;18.80;99.90;;;;;;7301147;32;20204;-55
2023/09/07 19:28:31;;;;;;;9.93;5.03;;;18.60;99.90;;;;;;7295130;32;20213;-54
2023/09/07 19:32:34;;;;;;;8.82;4.12;;;18.50;99.90;;;;;;7304656;32;20112;-55
2023/09/07 19:36:37;;;;;;;7.75;4.90;;;18.40;99.90;;;;;;7302901;32;20099;-57
2023/09/07 19:40:38;;;;;;;7.00;4.10;;;18.30;99.90;;;;;;7301264;32;20476;-56
2023/09/07 19:44:40;;;;;;;7.68;4.65;;;18.20;99.90;;;;;;7306049;32;20152;-56
2023/09/07 19:48:43;;;;;;;6.20;4.50;;;18.10;99.90;;;;;;7303000;32;20170;-56
2023/09/07 19:52:47;;;;;;;10.80;4.30;;;18.00;99.90;;;;;;7306662;32;20092;-55
2023/09/07 19:56:49;;;;;;;9.13;4.57;;;18.00;99.90;;;;;;7308353;32;20100;-57
2023/09/07 20:00:51;;;;;;;7.25;4.45;;;17.90;99.90;;;;;;7303509;32;20235;-56
2023/09/07 20:04:52;;;;;;;8.20;4.45;;;17.80;99.90;;;;;;7303302;32;20178;-56
2023/09/07 20:08:54;;;;;;;8.57;4.47;;;17.80;99.90;;;;;;7301755;32;20746;-55
2023/09/07 20:12:57;;;;;;;8.10;5.95;;;17.70;99.90;;;;;;7304109;32;20230;-56
2023/09/07 20:16:59;;;;;;;14.15;5.93;;;17.70;99.90;;;;;;7301785;32;20255;-55
2023/09/07 20:21:01;;;;;;;10.55;6.47;;;17.70;99.90;;;;;;7307533;32;20720;-55
2023/09/07 20:25:03;;;;;;;11.65;6.05;;;17.70;99.90;;;;;;7303390;32;20194;-55
2023/09/07 20:29:05;;;;;;;9.85;5.30;;;17.50;99.90;;;;;;7286913;32;20096;-54
2023/09/07 20:33:09;;;;;;;7.57;4.60;;;17.60;99.90;;;;;;7299117;32;20895;-57
2023/09/07 20:37:11;;;;;;;10.00;4.93;;;17.60;99.90;;;;;;7303313;32;20628;-55
2023/09/07 20:41:13;;;;;;;10.07;4.97;;;17.60;99.90;;;;;;7308528;32;20773;-55
2023/09/07 20:45:15;;;;;;;9.13;4.50;;;17.50;99.90;;;;;;7300165;32;20194;-55
2023/09/07 20:49:17;;;;;;;9.38;5.05;;;17.50;99.90;;;;;;7302182;32;20297;-56
2023/09/07 20:53:21;;;;;;;11.65;4.95;;;17.30;99.90;;;;;;7307827;32;20486;-56
2023/09/07 20:57:22;;;;;;;13.95;5.55;;;17.30;99.90;;;;;;7309170;32;20216;-55
2023/09/07 21:01:24;;;;;;;7.03;4.25;;;17.20;99.90;;;;;;7300965;32;20132;-56
2023/09/07 21:05:27;;;;;;;10.88;4.50;;;17.10;99.90;;;;;;7304994;32;20104;-56